createdAt,value
2018-04-11T00:00:01.546Z,0.77
2018-04-11T00:02:29.072Z,1.00
2018-04-11T00:04:56.549Z,0.63
2018-04-11T00:07:24.037Z,0.80
2018-04-11T00:09:51.572Z,0.90
2018-04-11T00:12:19.077Z,0.80
2018-04-11T00:14:46.553Z,0.93
2018-04-11T00:17:14.072Z,1.23
2018-04-11T00:19:41.564Z,1.20
2018-04-11T00:22:09.037Z,1.03
2018-04-11T00:24:36.558Z,1.30
2018-04-11T00:27:04.061Z,1.10
2018-04-11T00:29:31.541Z,1.50
2018-04-11T00:31:59.049Z,1.00
2018-04-11T00:34:26.561Z,1.00
2018-04-11T00:36:54.032Z,1.60
2018-04-11T00:39:21.565Z,1.30
2018-04-11T00:41:49.053Z,1.30
2018-04-11T00:44:16.581Z,2.13
2018-04-11T00:46:44.101Z,2.30
2018-04-11T00:49:11.605Z,1.70
2018-04-11T00:51:39.120Z,1.63
2018-04-11T00:54:06.777Z,2.60
2018-04-11T00:56:34.252Z,2.40
2018-04-11T00:59:01.733Z,2.50
2018-04-11T01:01:29.234Z,2.50
2018-04-11T01:03:56.720Z,3.70
2018-04-11T01:06:24.553Z,3.30
2018-04-11T01:08:52.065Z,3.37
2018-04-11T01:11:19.541Z,3.63
2018-04-11T01:13:47.051Z,3.17
2018-04-11T01:16:14.529Z,2.83
2018-04-11T01:18:42.289Z,2.70
2018-04-11T01:21:09.769Z,3.00
2018-04-11T01:23:37.241Z,2.23
2018-04-11T01:26:04.829Z,1.90
2018-04-11T01:28:32.313Z,1.53
2018-04-11T01:31:00.160Z,2.30
2018-04-11T01:33:27.641Z,2.23
2018-04-11T01:35:55.129Z,1.93
2018-04-11T01:38:22.634Z,1.87
2018-04-11T01:40:50.113Z,2.47
2018-04-11T01:43:17.621Z,1.63
2018-04-11T01:45:45.102Z,1.83
2018-04-11T01:48:12.585Z,2.00
2018-04-11T01:50:40.091Z,1.50
2018-04-11T01:53:07.570Z,1.93
2018-04-11T01:55:35.450Z,1.20
2018-04-11T01:58:02.950Z,1.50
2018-04-11T02:00:30.453Z,0.97
2018-04-11T02:02:57.989Z,1.40
2018-04-11T02:05:25.472Z,1.63
2018-04-11T02:07:53.225Z,1.23
2018-04-11T02:10:20.728Z,1.27
2018-04-11T02:12:48.228Z,1.17
2018-04-11T02:15:15.769Z,0.80
2018-04-11T02:17:43.250Z,1.37
2018-04-11T02:20:10.770Z,1.47
2018-04-11T02:22:38.248Z,1.27
2018-04-11T02:25:05.753Z,1.10
2018-04-11T02:27:33.277Z,1.27
2018-04-11T02:30:00.777Z,1.10
2018-04-11T02:32:28.638Z,1.00
2018-04-11T02:34:56.129Z,1.87
2018-04-11T02:37:23.605Z,1.10
2018-04-11T02:39:51.126Z,1.40
2018-04-11T02:42:18.601Z,1.20
2018-04-11T02:44:46.321Z,1.80
2018-04-11T02:47:13.851Z,1.63
2018-04-11T02:49:41.297Z,1.50
2018-04-11T02:52:08.821Z,1.17
2018-04-11T02:54:36.324Z,0.80
2018-04-11T02:57:04.041Z,1.03
2018-04-11T02:59:31.529Z,1.07
2018-04-11T03:01:59.002Z,1.10
2018-04-11T03:04:27.456Z,1.30
2018-04-11T03:06:54.933Z,1.37
2018-04-11T03:09:22.531Z,0.80
2018-04-11T03:11:49.978Z,1.00
2018-04-11T03:14:17.466Z,1.33
2018-04-11T03:16:44.969Z,0.87
2018-04-11T03:19:12.445Z,0.80
2018-04-11T03:21:40.397Z,1.60
2018-04-11T03:24:08.121Z,2.27
2018-04-11T03:26:35.601Z,2.03
2018-04-11T03:29:03.101Z,2.07
2018-04-11T03:31:30.626Z,2.30
2018-04-11T03:33:58.151Z,2.80
2018-04-11T03:36:27.285Z,2.57
2018-04-11T03:38:54.765Z,3.57
2018-04-11T03:41:22.268Z,3.80
2018-04-11T03:43:49.760Z,3.93
2018-04-11T03:46:17.425Z,3.97
2018-04-11T03:48:44.900Z,3.73
2018-04-11T03:51:12.381Z,2.90
2018-04-11T03:53:39.881Z,2.70
2018-04-11T03:56:07.361Z,2.80
2018-04-11T03:58:34.880Z,2.63
2018-04-11T04:01:02.378Z,3.00
2018-04-11T04:03:29.865Z,2.50
2018-04-11T04:05:57.387Z,2.87
2018-04-11T04:08:24.898Z,3.73
2018-04-11T04:10:52.529Z,3.13
2018-04-11T04:16:31.108Z,2.27
2018-04-11T04:19:10.445Z,3.07
2018-04-11T04:21:38.222Z,2.83
2018-04-11T04:24:05.700Z,2.80
2018-04-11T04:26:33.173Z,3.40
2018-04-11T04:29:00.681Z,3.23
2018-04-11T04:31:28.157Z,3.33
2018-04-11T04:33:55.685Z,2.77
2018-04-11T04:36:23.181Z,2.67
2018-04-11T04:38:50.652Z,3.47
2018-04-11T04:41:18.160Z,3.00
2018-04-11T04:43:45.642Z,3.03
2018-04-11T04:46:13.502Z,2.63
2018-04-11T04:48:40.984Z,3.97
2018-04-11T04:51:08.503Z,3.67
2018-04-11T04:53:36.030Z,4.30
2018-04-11T04:56:03.506Z,4.40
2018-04-11T04:58:31.029Z,5.30
2018-04-11T05:00:58.549Z,5.40
2018-04-11T05:03:26.040Z,4.00
2018-04-11T05:05:53.561Z,4.93
2018-04-11T05:08:21.033Z,4.60
2018-04-11T05:10:48.738Z,5.30
2018-04-11T05:13:16.233Z,5.60
2018-04-11T05:15:43.721Z,6.20
2018-04-11T05:18:11.230Z,5.40
2018-04-11T05:20:38.728Z,6.70
2018-04-11T05:23:06.393Z,6.13
2018-04-11T05:25:33.880Z,7.13
2018-04-11T05:28:01.357Z,7.13
2018-04-11T05:30:28.882Z,7.70
2018-04-11T05:32:56.395Z,7.37
2018-04-11T05:35:24.172Z,6.37
2018-04-11T05:37:51.648Z,7.47
2018-04-11T05:40:19.135Z,7.60
2018-04-11T05:42:46.794Z,6.70
2018-04-11T05:45:14.269Z,8.27
2018-04-11T05:47:41.904Z,9.13
2018-04-11T05:50:09.390Z,9.63
2018-04-11T05:52:36.879Z,9.30
2018-04-11T05:55:04.384Z,8.33
2018-04-11T05:57:31.862Z,9.23
2018-04-11T05:59:59.574Z,8.60
2018-04-11T06:02:27.078Z,10.23
2018-04-11T06:04:54.573Z,9.03
2018-04-11T06:07:22.073Z,9.07
2018-04-11T06:09:49.601Z,9.30
2018-04-11T06:12:17.130Z,10.00
2018-04-11T06:14:44.609Z,9.70
2018-04-11T06:17:12.122Z,11.17
2018-04-11T06:19:39.657Z,10.80
2018-04-11T06:22:07.145Z,10.20
2018-04-11T06:24:34.781Z,10.10
2018-04-11T06:27:02.265Z,11.17
2018-04-11T06:29:29.763Z,10.00
2018-04-11T06:31:57.272Z,10.50
2018-04-11T06:34:24.802Z,10.40
2018-04-11T06:36:52.349Z,10.50
2018-04-11T06:39:19.861Z,9.47
2018-04-11T06:41:47.345Z,10.63
2018-04-11T06:44:14.849Z,10.30
2018-04-11T06:46:42.345Z,10.40
2018-04-11T06:49:10.289Z,8.40
2018-04-11T06:51:37.789Z,9.60
2018-04-11T06:54:05.309Z,9.10
2018-04-11T06:56:32.813Z,9.63
2018-04-11T06:59:00.289Z,9.20
2018-04-11T07:01:28.021Z,8.83
2018-04-11T07:03:55.512Z,10.53
2018-04-11T07:06:22.997Z,9.20
2018-04-11T07:08:50.513Z,9.63
2018-04-11T07:11:18.021Z,9.93
2018-04-11T07:13:45.678Z,12.40
2018-04-11T07:16:13.161Z,10.10
2018-04-11T07:18:40.647Z,8.70
2018-04-11T07:21:08.158Z,9.83
2018-04-11T07:23:35.634Z,9.50
2018-04-11T07:26:03.463Z,9.43
2018-04-11T07:28:31.142Z,8.03
2018-04-11T07:30:58.617Z,9.00
2018-04-11T07:33:26.196Z,9.10
2018-04-11T07:35:53.669Z,8.63
2018-04-11T07:38:21.192Z,7.77
2018-04-11T07:40:48.665Z,7.20
2018-04-11T07:43:16.141Z,7.50
2018-04-11T07:45:43.645Z,7.00
2018-04-11T07:48:11.125Z,6.00
2018-04-11T07:50:38.841Z,7.17
2018-04-11T07:53:06.336Z,6.83
2018-04-11T07:55:33.815Z,7.90
2018-04-11T07:58:01.329Z,7.57
2018-04-11T08:00:28.817Z,6.90
2018-04-11T08:02:56.524Z,6.53
2018-04-11T08:05:24.041Z,7.00
2018-04-11T08:07:51.538Z,6.27
2018-04-11T08:10:19.041Z,8.50
2018-04-11T08:12:46.555Z,7.17
2018-04-11T08:15:14.493Z,6.83
2018-04-11T08:17:41.994Z,7.20
2018-04-11T08:20:09.487Z,7.03
2018-04-11T08:22:37.189Z,6.00
2018-04-11T08:25:04.679Z,6.60
2018-04-11T08:27:32.353Z,6.53
2018-04-11T08:29:59.824Z,6.30
2018-04-11T08:32:27.309Z,5.80
2018-04-11T08:34:54.810Z,6.03
2018-04-11T08:37:22.317Z,7.17
2018-04-11T08:39:49.844Z,6.70
2018-04-11T08:42:17.334Z,6.80
2018-04-11T08:44:44.828Z,4.43
2018-04-11T08:47:12.729Z,5.50
2018-04-11T08:49:40.213Z,6.70
2018-04-11T08:52:08.126Z,6.77
2018-04-11T08:54:35.618Z,5.43
2018-04-11T08:57:03.116Z,6.30
2018-04-11T08:59:30.613Z,5.30
2018-04-11T09:01:58.097Z,6.33
2018-04-11T09:04:25.937Z,4.87
2018-04-11T09:06:53.553Z,5.73
2018-04-11T09:09:21.037Z,5.73
2018-04-11T09:11:48.548Z,4.80
2018-04-11T09:14:16.020Z,5.97
2018-04-11T09:16:43.793Z,6.07
2018-04-11T09:19:11.308Z,4.63
2018-04-11T09:21:38.786Z,4.87
2018-04-11T09:24:06.288Z,4.63
2018-04-11T09:26:33.800Z,5.80
2018-04-11T09:29:01.449Z,4.97
2018-04-11T09:31:28.943Z,4.33
2018-04-11T09:33:56.420Z,5.07
2018-04-11T09:36:23.934Z,4.77
2018-04-11T09:38:51.436Z,4.83
2018-04-11T09:41:19.111Z,3.70
2018-04-11T09:43:46.613Z,3.60
2018-04-11T09:46:14.094Z,4.00
2018-04-11T09:48:41.621Z,4.27
2018-04-11T09:51:09.109Z,3.67
2018-04-11T09:53:36.633Z,4.67
2018-04-11T09:56:04.113Z,4.40
2018-04-11T09:58:31.609Z,4.63
2018-04-11T10:00:59.116Z,4.13
2018-04-11T10:03:26.589Z,3.83
2018-04-11T10:05:54.328Z,4.07
2018-04-11T10:08:21.810Z,3.70
2018-04-11T10:10:49.290Z,4.10
2018-04-11T10:13:16.793Z,3.90
2018-04-11T10:15:44.273Z,4.23
2018-04-11T10:18:11.797Z,3.93
2018-04-11T10:20:39.295Z,4.80
2018-04-11T10:23:06.816Z,4.33
2018-04-11T10:25:34.324Z,3.90
2018-04-11T10:28:01.821Z,4.20
2018-04-11T10:30:29.341Z,3.80
2018-04-11T10:32:56.829Z,3.27
2018-04-11T10:35:24.335Z,3.40
2018-04-11T10:37:51.837Z,3.47
2018-04-11T10:40:19.337Z,1.50
2018-04-11T10:42:46.992Z,2.83
2018-04-11T10:45:14.489Z,2.37
2018-04-11T10:47:41.976Z,2.90
2018-04-11T10:50:09.793Z,1.70
2018-04-11T10:52:37.271Z,1.73
2018-04-11T10:55:04.941Z,1.60
2018-04-11T10:57:32.426Z,2.37
2018-04-11T10:59:59.904Z,2.37
2018-04-11T11:02:27.439Z,2.60
2018-04-11T11:04:54.925Z,2.47
2018-04-11T11:07:22.609Z,2.90
2018-04-11T11:09:50.100Z,3.57
2018-04-11T11:12:17.589Z,2.70
2018-04-11T11:14:45.097Z,2.50
2018-04-11T11:17:12.579Z,3.30
2018-04-11T11:19:51.855Z,2.80
2018-04-11T11:22:19.333Z,2.87
2018-04-11T11:24:46.821Z,2.60
2018-04-11T11:27:14.629Z,2.10
2018-04-11T11:29:42.109Z,2.37
2018-04-11T11:32:09.983Z,2.57
2018-04-11T11:34:37.477Z,2.40
2018-04-11T11:37:07.081Z,2.50
2018-04-11T11:39:34.610Z,2.03
2018-04-11T11:42:02.099Z,2.03
2018-04-11T11:44:29.629Z,1.93
2018-04-11T11:46:57.109Z,1.87
2018-04-11T11:49:24.590Z,1.70
2018-04-11T11:51:52.121Z,1.70
2018-04-11T11:54:19.597Z,1.23
2018-04-11T11:56:47.243Z,1.90
2018-04-11T11:59:14.742Z,2.03
2018-04-11T12:01:42.225Z,2.00
2018-04-11T12:04:09.766Z,2.30
2018-04-11T12:06:37.265Z,3.20
2018-04-11T12:09:05.113Z,2.30
2018-04-11T12:11:32.594Z,2.57
2018-04-11T12:14:00.081Z,2.03
2018-04-11T12:16:27.595Z,1.73
2018-04-11T12:18:55.101Z,2.13
2018-04-11T12:21:22.689Z,2.30
2018-04-11T12:23:50.169Z,2.30
2018-04-11T12:26:17.645Z,2.80
2018-04-11T12:28:45.178Z,2.60
2018-04-11T12:31:12.681Z,2.77
2018-04-11T12:33:40.204Z,2.03
2018-04-11T12:36:07.681Z,2.50
2018-04-11T12:38:35.161Z,1.90
2018-04-11T12:41:02.680Z,2.27
2018-04-11T12:43:30.169Z,3.03
2018-04-11T12:45:57.730Z,2.57
2018-04-11T12:48:25.253Z,2.77
2018-04-11T12:50:52.774Z,2.13
2018-04-11T12:53:20.277Z,2.00
2018-04-11T12:55:47.791Z,1.47
2018-04-11T12:58:15.416Z,1.90
2018-04-11T13:00:42.920Z,1.70
2018-04-11T13:03:10.413Z,1.53
2018-04-11T13:05:37.941Z,1.73
2018-04-11T13:08:05.433Z,1.10
2018-04-11T13:10:32.969Z,1.60
2018-04-11T13:13:00.501Z,1.07
2018-04-11T13:15:27.985Z,0.80
2018-04-11T13:17:55.490Z,1.50
2018-04-11T13:20:22.970Z,2.03
2018-04-11T13:22:50.746Z,1.60
2018-04-11T13:25:18.225Z,1.43
2018-04-11T13:27:45.786Z,1.00
2018-04-11T13:30:13.369Z,0.93
2018-04-11T13:32:40.842Z,1.17
2018-04-11T13:35:08.697Z,1.00
2018-04-11T13:37:36.193Z,1.60
2018-04-11T13:40:03.700Z,1.60
2018-04-11T13:42:31.336Z,1.77
2018-04-11T13:44:59.248Z,1.50
2018-04-11T13:47:26.778Z,1.60
2018-04-11T13:49:54.297Z,1.20
2018-04-11T13:52:21.804Z,1.63
2018-04-11T13:54:49.320Z,1.50
2018-04-11T13:57:16.816Z,1.77
2018-04-11T13:59:44.325Z,1.40
2018-04-11T14:02:11.805Z,2.30
2018-04-11T14:04:39.541Z,2.20
2018-04-11T14:07:07.057Z,1.50
2018-04-11T14:09:34.737Z,1.10
2018-04-11T14:12:02.485Z,1.27
2018-04-11T14:14:29.992Z,1.33
2018-04-11T14:16:57.493Z,0.90
2018-04-11T14:19:25.008Z,0.83
2018-04-11T14:21:52.513Z,1.10
2018-04-11T14:24:20.140Z,1.43
2018-04-11T14:26:47.621Z,1.00
2018-04-11T14:29:15.107Z,0.90
2018-04-11T14:31:42.633Z,1.00
2018-04-11T14:34:10.150Z,0.70
2018-04-11T14:36:38.069Z,0.83
2018-04-11T14:39:06.369Z,1.00
2018-04-11T14:41:33.858Z,0.63
2018-04-11T14:44:01.371Z,0.53
2018-04-11T14:46:28.853Z,0.50
2018-04-11T14:48:56.364Z,0.60
2018-04-11T14:51:23.893Z,0.60
2018-04-11T14:53:51.374Z,0.40
2018-04-11T14:56:18.875Z,0.60
2018-04-11T14:58:46.417Z,0.70
2018-04-11T15:01:14.245Z,1.00
2018-04-11T15:03:41.766Z,0.50
2018-04-11T15:06:09.246Z,0.87
2018-04-11T15:08:36.787Z,1.33
2018-04-11T15:11:04.269Z,1.63
2018-04-11T15:13:31.905Z,1.00
2018-04-11T15:15:59.496Z,0.70
2018-04-11T15:18:26.964Z,0.60
2018-04-11T15:20:54.477Z,0.50
2018-04-11T15:23:22.012Z,1.30
2018-04-11T15:25:49.522Z,0.90
2018-04-11T15:28:17.040Z,1.03
2018-04-11T15:30:44.545Z,0.83
2018-04-11T15:33:12.061Z,0.50
2018-04-11T15:35:39.581Z,0.77
2018-04-11T15:38:07.424Z,0.80
2018-04-11T15:40:34.912Z,0.60
2018-04-11T15:43:02.514Z,0.60
2018-04-11T15:45:30.041Z,0.60
2018-04-11T15:47:57.556Z,0.80
2018-04-11T15:50:25.114Z,0.70
2018-04-11T15:52:52.636Z,1.00
2018-04-11T15:55:20.125Z,0.40
2018-04-11T15:57:47.642Z,0.60
2018-04-11T16:00:15.149Z,0.50
2018-04-11T16:02:42.674Z,0.60
2018-04-11T16:05:10.277Z,0.73
2018-04-11T16:07:37.837Z,0.97
2018-04-11T16:10:05.354Z,0.60
2018-04-11T16:12:33.144Z,0.80
2018-04-11T16:15:00.917Z,0.70
2018-04-11T16:17:28.417Z,0.70
2018-04-11T16:19:55.937Z,0.93
2018-04-11T16:22:23.451Z,0.60
2018-04-11T16:24:50.941Z,0.90
2018-04-11T16:27:18.841Z,1.27
2018-04-11T16:29:46.335Z,1.40
2018-04-11T16:32:13.814Z,1.13
2018-04-11T16:34:41.342Z,1.50
2018-04-11T16:37:08.848Z,1.53
2018-04-11T16:39:36.605Z,2.10
2018-04-11T16:42:04.118Z,2.20
2018-04-11T16:44:31.618Z,2.27
2018-04-11T16:46:59.119Z,1.77
2018-04-11T16:49:26.597Z,2.43
2018-04-11T16:51:54.361Z,2.30
2018-04-11T16:54:21.840Z,2.23
2018-04-11T16:56:49.329Z,2.33
2018-04-11T16:59:16.880Z,3.20
2018-04-11T17:01:44.365Z,1.90
2018-04-11T17:04:11.927Z,3.30
2018-04-11T17:06:39.409Z,2.10
2018-04-11T17:09:06.899Z,3.13
2018-04-11T17:11:34.431Z,2.47
2018-04-11T17:14:01.933Z,2.60
2018-04-11T17:16:29.605Z,3.60
2018-04-11T17:18:57.109Z,2.80
2018-04-11T17:21:36.606Z,3.80
2018-04-11T17:24:15.975Z,2.93
2018-04-11T17:26:55.412Z,2.40
2018-04-11T17:29:34.770Z,2.30
2018-04-11T17:32:02.310Z,2.23
2018-04-11T17:34:29.788Z,3.40
2018-04-11T17:36:57.822Z,3.43
2018-04-11T17:39:25.326Z,3.10
2018-04-11T17:41:52.878Z,3.50
2018-04-11T17:44:20.474Z,3.63
2018-04-11T17:46:47.975Z,3.60
2018-04-11T17:49:15.650Z,3.47
2018-04-11T17:51:43.213Z,3.37
2018-04-11T17:54:10.901Z,3.50
2018-04-11T17:56:39.377Z,3.40
2018-04-11T17:59:06.964Z,3.77
2018-04-11T18:01:34.848Z,3.23
2018-04-11T18:04:02.380Z,4.03
2018-04-11T18:06:30.184Z,3.37
2018-04-11T18:08:58.083Z,3.77
2018-04-11T18:11:25.860Z,3.50
2018-04-11T18:13:53.476Z,2.90
2018-04-11T18:16:21.525Z,3.30
2018-04-11T18:18:49.185Z,3.50
2018-04-11T18:21:17.170Z,2.83
2018-04-11T18:23:45.055Z,2.60
2018-04-11T18:26:13.426Z,2.93
2018-04-11T18:28:41.309Z,3.60
2018-04-11T18:31:09.306Z,3.10
2018-04-11T18:33:38.293Z,3.10
2018-04-11T18:36:06.706Z,3.57
2018-04-11T18:38:35.388Z,3.07
2018-04-11T18:41:04.819Z,2.80
2018-04-11T18:43:34.369Z,3.10
2018-04-11T18:46:03.031Z,3.33
2018-04-11T18:48:32.434Z,3.30
2018-04-11T18:51:01.002Z,3.10
2018-04-11T18:53:29.199Z,3.37
2018-04-11T18:55:57.445Z,2.50
2018-04-11T18:58:26.410Z,2.33
2018-04-11T19:00:55.340Z,2.80
2018-04-11T19:03:23.925Z,3.17
2018-04-11T19:05:52.417Z,3.33
2018-04-11T19:08:20.832Z,3.10
2018-04-11T19:10:49.517Z,3.20
2018-04-11T19:13:18.235Z,3.43
2018-04-11T19:15:47.226Z,2.87
2018-04-11T19:18:16.595Z,3.80
2018-04-11T19:20:45.065Z,3.33
2018-04-11T19:23:13.854Z,3.80
2018-04-11T19:25:42.945Z,3.83
2018-04-11T19:28:12.035Z,3.50
2018-04-11T19:30:40.640Z,3.57
2018-04-11T19:33:09.251Z,3.80
2018-04-11T19:35:38.140Z,3.30
2018-04-11T19:38:06.864Z,3.63
2018-04-11T19:40:36.242Z,3.70
2018-04-11T19:43:05.569Z,3.27
2018-04-11T19:45:34.378Z,3.10
2018-04-11T19:48:03.290Z,3.13
2018-04-11T19:50:32.798Z,3.80
2018-04-11T19:53:01.364Z,3.17
2018-04-11T19:55:29.776Z,3.37
2018-04-11T19:57:58.792Z,4.00
2018-04-11T20:00:27.116Z,3.47
2018-04-11T20:02:55.478Z,2.80
2018-04-11T20:05:24.150Z,3.83
2018-04-11T20:07:53.191Z,3.30
2018-04-11T20:10:21.652Z,4.20
2018-04-11T20:12:50.137Z,4.10
2018-04-11T20:15:18.765Z,3.90
2018-04-11T20:17:48.468Z,3.60
2018-04-11T20:20:17.567Z,3.33
2018-04-11T20:22:45.959Z,4.00
2018-04-11T20:25:13.939Z,4.70
2018-04-11T20:27:42.751Z,3.93
2018-04-11T20:30:10.847Z,3.60
2018-04-11T20:32:38.821Z,4.23
2018-04-11T20:35:06.801Z,3.97
2018-04-11T20:37:34.495Z,3.50
2018-04-11T20:40:02.146Z,3.30
2018-04-11T20:42:29.972Z,3.20
2018-04-11T20:44:57.498Z,3.40
2018-04-11T20:47:24.986Z,2.57
2018-04-11T20:49:52.533Z,2.93
2018-04-11T20:52:20.204Z,3.43
2018-04-11T20:54:47.992Z,3.37
2018-04-11T20:57:15.499Z,2.67
2018-04-11T20:59:42.995Z,2.63
2018-04-11T21:02:10.526Z,2.80
2018-04-11T21:04:38.067Z,3.17
2018-04-11T21:07:05.830Z,1.80
2018-04-11T21:09:33.318Z,2.40
2018-04-11T21:12:00.812Z,2.77
2018-04-11T21:14:28.362Z,2.30
2018-04-11T21:16:55.852Z,2.83
2018-04-11T21:19:23.596Z,1.90
2018-04-11T21:21:51.071Z,2.23
2018-04-11T21:24:18.594Z,1.80
2018-04-11T21:26:46.117Z,2.43
2018-04-11T21:29:13.639Z,2.80
2018-04-11T21:31:41.338Z,2.93
2018-04-11T21:34:08.901Z,3.07
2018-04-11T21:36:36.383Z,3.30
2018-04-11T21:39:03.893Z,2.77
2018-04-11T21:41:31.368Z,3.10
2018-04-11T21:43:58.979Z,3.17
2018-04-11T21:46:26.453Z,3.13
2018-04-11T21:48:53.933Z,2.50
2018-04-11T21:51:21.445Z,2.83
2018-04-11T21:53:48.943Z,2.73
2018-04-11T21:56:16.461Z,2.93
2018-04-11T21:58:44.047Z,3.17
2018-04-11T22:01:11.541Z,2.83
2018-04-11T22:03:39.053Z,2.03
2018-04-11T22:06:06.550Z,3.50
2018-04-11T22:08:34.169Z,2.90
2018-04-11T22:11:01.649Z,2.53
2018-04-11T22:13:29.166Z,2.60
2018-04-11T22:15:56.697Z,2.50
2018-04-11T22:18:24.181Z,2.80
2018-04-11T22:20:51.717Z,2.93
2018-04-11T22:23:19.193Z,2.10
2018-04-11T22:25:46.677Z,3.17
2018-04-11T22:28:14.189Z,2.93
2018-04-11T22:30:41.669Z,2.93
2018-04-11T22:33:09.205Z,2.50
2018-04-11T22:35:36.685Z,2.97
2018-04-11T22:38:04.160Z,3.17
2018-04-11T22:40:31.677Z,2.33
2018-04-11T22:42:59.151Z,2.30
2018-04-11T22:45:27.094Z,2.90
2018-04-11T22:47:54.569Z,2.40
2018-04-11T22:50:22.131Z,2.93
2018-04-11T22:52:49.653Z,3.80
2018-04-11T22:55:17.125Z,3.40
2018-04-11T22:57:44.668Z,2.87
2018-04-11T23:00:12.159Z,3.50
2018-04-11T23:02:39.653Z,3.70
2018-04-11T23:05:07.184Z,3.40
2018-04-11T23:07:34.657Z,3.00
2018-04-11T23:10:02.320Z,3.03
2018-04-11T23:12:29.875Z,2.67
2018-04-11T23:14:57.357Z,2.93
2018-04-11T23:17:24.873Z,3.30
2018-04-11T23:19:52.361Z,2.30
2018-04-11T23:22:19.877Z,3.20
2018-04-11T23:24:47.375Z,3.20
2018-04-11T23:27:14.853Z,3.80
2018-04-11T23:29:42.358Z,2.93
2018-04-11T23:32:09.845Z,3.30
2018-04-11T23:34:37.681Z,3.40
2018-04-11T23:37:05.185Z,3.70
2018-04-11T23:39:32.664Z,3.00
2018-04-11T23:42:00.177Z,3.93
2018-04-11T23:44:27.673Z,3.00
2018-04-11T23:46:55.192Z,3.60
2018-04-11T23:49:22.669Z,3.37
2018-04-11T23:51:50.149Z,3.47
2018-04-11T23:54:17.653Z,3.57
2018-04-11T23:56:45.131Z,3.80
2018-04-11T23:59:12.898Z,4.07
